West Mifflin, PA (15122)

8:12 PM EDT on April 20, 2018 (GMT -0400)
West Mifflin | | Change Station
Active Advisory: Flood Advisory Active Notice: Flood Advisory

Elev 1070 ft 40.37 °N, 79.89 °W | Updated 13 seconds ago

Clear
Clear
48.7 °F
Feels Like 47 °F
N
4.0
Wind Variable Wind from WSW
Gusts 4.9 mph

Today
High -- | Low -- °F
--% Chance of Precip.
Yesterday
High -- | Low -- °F
Precip. -- in
Pressure 30.42 in
Visibility 10.0 miles
Clouds Clear
Windchill 47 °F
Dew Point 14 °F
Humidity 24%
Rainfall 0.00 in
Snow Depth Not available.
6:33 AM 8:03 PM
Waxing Crescent, 29% visible
METAR KAGC 202353Z 34006KT 10SM CLR 08/M08 A3037 RMK AO2 SLP299 T00831078 10117 20083 53006
Pressure 30.42 in
Visibility 10.0 miles
Clouds Clear
Windchill 47 °F
Dew Point 14 °F
Humidity 24%
Rainfall 0.00 in
Snow Depth Not available.
6:33 AM 8:03 PM
Waxing Crescent, 29% visible
METAR KAGC 202353Z 34006KT 10SM CLR 08/M08 A3037 RMK AO2 SLP299 T00831078 10117 20083 53006

Get Your Daily Forecast Email!

Thanks for signing up!

Be on the lookout for a verification email in your inbox.

You'll start receiving severe weather alerts in your inbox..

×

10-Day Weather Forecast

Almanac

Astronomy

Apr. 20, 2018 Rise Set
Actual Time
Civil Twilight
Nautical Twilight
Astronomical Twilight
Moon
Length of Visible Light
Length of Day
Tomorrow will be .
, % of the Moon is Illuminated

Today's Extremes

State Highs State Lows

Community

WunderPhotos

Category 6

Welcome to Category 6. This is the collective home for Weather Underground's featured writeups by Dr. Jeff Masters (right), Bob Henson (left), Chris Burt, and other regular contributors.

Nearby

Air Quality

  Air Quality AQ Index Pollutant
Not available.

Snow Depth

Station Depth Elevation

Earthquake Activity

City Distance Mag. Time & Date
Minimum magnitude displayed is 2.5.

Coastal Water Temperatures

Place Temperature

Stations

Nearby Weather Stations

Station Location Temp. Windchill Dew Point Humidity Wind Precip. Elev Updated Type
                   

Watches & Warnings

Flood Advisory
Issued: 11:00 AM EDT Apr. 20, 2018 – National Weather Service

The flood advisory continues for
the Ohio River at Pittsburgh.
* Until Saturday morning.
* At 10am Friday the stage was 18.5 feet.
* Flood stage is 25.0 feet.
* Forecast... the river will rise to near 18.5 feet this afternoon.
* Impact... at 19.0 feet, water begins to flow onto the North Shore
riverwalk between the stadiums.


Lat... Lon 4043 7999 4045 8005 4047 8003 4045 8001
      4046 7999 4045 7998